Time;durP1;ratioP1;P1;durP2;ratioP2;P2;SDS_P1;SDS_P2;PMS_P1;PMS_P2;Temp;Humidity;BMP_temperature;BMP_pressure;BME280_temperature;BME280_humidity;BME280_pressure;Samples;Min_cycle;Max_cycle;Signal;HPM_P1;HPM_P2
2024/04/06 00:01:02;;;;;;;1.00;0.70;;;;;;;16.59;82.67;100044.61;187223;1234;59139;-69
2024/04/06 00:05:24;;;;;;;0.90;0.50;;;;;;;16.53;83.47;100046.30;187228;1234;43079;-70
2024/04/06 00:09:26;;;;;;;7.00;0.90;;;;;;;16.48;83.76;100049.60;187211;1234;43886;-70
2024/04/06 00:13:51;;;;;;;0.80;0.50;;;;;;;16.41;84.11;100058.58;187093;1234;43018;-70
2024/04/06 00:17:53;;;;;;;3.10;1.10;;;;;;;16.35;84.01;100067.64;187249;1234;43037;-70
2024/04/06 00:22:01;;;;;;;0.80;0.70;;;;;;;16.33;84.38;100074.65;187268;1234;58011;-70
2024/04/06 00:26:02;;;;;;;3.20;0.70;;;;;;;16.28;85.64;100075.35;187246;1234;43701;-70
2024/04/06 00:30:12;;;;;;;2.10;0.90;;;;;;;16.16;86.90;100078.45;187180;1234;43354;-70
2024/04/06 00:34:14;;;;;;;2.40;0.50;;;;;;;16.07;87.43;100084.58;187148;1234;43647;-70
2024/04/06 00:38:17;;;;;;;2.30;0.80;;;;;;;15.99;86.67;100087.22;187349;1233;42985;-70
2024/04/06 00:42:19;;;;;;;1.50;0.90;;;;;;;15.92;87.33;100088.21;187268;1234;58596;-69
2024/04/06 00:46:22;;;;;;;1.70;0.90;;;;;;;15.87;88.41;100092.42;187206;1233;43336;-70
2024/04/06 00:50:24;;;;;;;1.70;1.10;;;;;;;15.75;89.24;100097.98;187258;1234;42936;-70
2024/04/06 00:54:26;;;;;;;3.30;1.40;;;;;;;15.66;90.89;100104.97;187239;1234;43967;-70
2024/04/06 00:58:28;;;;;;;1.90;0.90;;;;;;;15.43;94.23;100103.69;187297;1234;43545;-69
2024/04/06 01:02:37;;;;;;;2.60;1.00;;;;;;;15.32;94.20;100098.59;187304;1234;57453;-69
2024/04/06 01:06:40;;;;;;;1.90;0.90;;;;;;;15.28;93.67;100101.29;187115;1235;43635;-69
2024/04/06 01:10:42;;;;;;;1.70;1.00;;;;;;;15.26;94.17;100101.70;187205;1234;43610;-70
2024/04/06 01:14:44;;;;;;;1.90;0.80;;;;;;;15.25;94.60;100112.27;187184;1234;42987;-70
2024/04/06 01:18:46;;;;;;;2.60;1.20;;;;;;;15.20;95.21;100111.58;187177;1235;42980;-70
2024/04/06 01:22:48;;;;;;;3.00;1.50;;;;;;;15.10;96.54;100115.16;187273;1234;58520;-69
2024/04/06 01:26:49;;;;;;;4.10;1.80;;;;;;;15.03;97.20;100121.07;187141;1234;43662;-69
2024/04/06 01:30:51;;;;;;;1.90;1.20;;;;;;;14.93;99.31;100120.91;187032;1234;43038;-69
2024/04/06 01:34:52;;;;;;;2.90;1.60;;;;;;;14.79;99.98;100125.59;187261;1235;43596;-69
2024/04/06 01:38:54;;;;;;;3.40;1.30;;;;;;;14.65;100.00;100129.66;187106;1235;43657;-69
2024/04/06 01:42:59;;;;;;;4.60;1.50;;;;;;;14.63;100.00;100133.80;187162;1232;58138;-69
2024/04/06 01:47:00;;;;;;;1.60;1.10;;;;;;;14.55;100.00;100134.02;187196;1234;43324;-69
2024/04/06 01:51:02;;;;;;;4.80;1.00;;;;;;;14.41;100.00;100136.16;187230;1233;43611;-70
2024/04/06 01:55:05;;;;;;;5.80;1.50;;;;;;;14.45;100.00;100141.83;187153;1234;43630;-69
2024/04/06 01:59:08;;;;;;;1.80;1.20;;;;;;;14.48;100.00;100141.14;187234;1235;43707;-69
2024/04/06 02:03:11;;;;;;;3.90;1.60;;;;;;;14.53;100.00;100143.56;187041;1233;58002;-70
2024/04/06 02:07:13;;;;;;;2.90;1.30;;;;;;;14.59;100.00;100147.05;187274;1234;43648;-69
2024/04/06 02:11:15;;;;;;;4.60;1.70;;;;;;;14.66;100.00;100155.20;187181;1234;43768;-69
2024/04/06 02:15:16;;;;;;;2.80;1.40;;;;;;;14.72;100.00;100162.67;187335;1233;43130;-69
2024/04/06 02:19:18;;;;;;;1.50;1.20;;;;;;;14.73;100.00;100163.73;187269;1234;43679;-69
2024/04/06 02:23:19;;;;;;;4.00;1.70;;;;;;;14.67;100.00;100167.06;187311;1236;57964;-69
2024/04/06 02:27:22;;;;;;;2.80;1.60;;;;;;;14.66;100.00;100163.10;187080;1234;43388;-69
2024/04/06 02:32:17;;;;;;;2.60;1.50;;;;;;;14.68;100.00;100161.24;187144;1233;43625;-69
2024/04/06 02:36:18;;;;;;;2.40;1.90;;;;;;;14.70;100.00;100165.67;187275;1235;43635;-69
2024/04/06 02:40:25;;;;;;;4.30;1.80;;;;;;;14.74;100.00;100171.95;187241;1234;43613;-70
2024/04/06 02:44:27;;;;;;;3.10;1.90;;;;;;;14.74;100.00;100169.82;187118;1236;58247;-70
2024/04/06 02:48:28;;;;;;;3.10;1.20;;;;;;;14.74;99.97;100170.36;187045;1234;43036;-71
2024/04/06 02:52:30;;;;;;;4.10;2.10;;;;;;;14.70;99.98;100176.98;187229;1233;43613;-70
2024/04/06 02:56:31;;;;;;;2.60;1.70;;;;;;;14.66;99.96;100179.36;187074;1234;44059;-70
2024/04/06 03:00:37;;;;;;;2.10;1.50;;;;;;;14.62;99.82;100185.80;187319;1234;42932;-70
2024/04/06 03:04:40;;;;;;;;;;;;;;;14.56;100.00;100181.76;187114;1233;58178;-70
2024/04/06 03:08:42;;;;;;;7.30;2.30;;;;;;;14.42;100.00;100181.37;187107;1234;43351;-70
2024/04/06 03:13:16;;;;;;;2.50;1.20;;;;;;;14.35;100.00;100187.06;187122;1234;43740;-69
2024/04/06 03:17:17;;;;;;;4.50;2.80;;;;;;;14.29;100.00;100189.81;187267;1234;43636;-70
2024/04/06 03:21:22;;;;;;;6.20;2.70;;;;;;;14.19;100.00;100187.95;187207;1234;43390;-71
2024/04/06 03:25:25;;;;;;;2.60;2.40;;;;;;;14.05;100.00;100185.34;187302;1233;58318;-71
2024/04/06 03:29:31;;;;;;;3.40;1.70;;;;;;;13.99;100.00;100189.35;187240;1234;43062;-70
2024/04/06 03:33:32;;;;;;;4.80;1.60;;;;;;;13.95;100.00;100192.20;187265;1234;42980;-70
2024/04/06 03:37:34;;;;;;;2.30;1.40;;;;;;;13.94;100.00;100190.83;187142;1232;44133;-70
2024/04/06 03:41:36;;;;;;;2.90;1.60;;;;;;;13.86;100.00;100192.20;187350;1234;42929;-70
2024/04/06 03:45:38;;;;;;;4.20;1.90;;;;;;;13.77;100.00;100194.65;187086;1232;57958;-70
2024/04/06 03:49:39;;;;;;;2.50;1.60;;;;;;;13.72;100.00;100192.98;187298;1234;43625;-70
2024/04/06 03:53:43;;;;;;;2.30;1.70;;;;;;;13.67;100.00;100197.73;187321;1233;42961;-71
2024/04/06 03:57:45;;;;;;;1.20;1.00;;;;;;;13.62;100.00;100193.77;186966;1235;43674;-70
2024/04/06 04:01:49;;;;;;;1.50;1.10;;;;;;;13.56;100.00;100207.36;187325;1235;43182;-70
2024/04/06 04:05:51;;;;;;;1.60;1.20;;;;;;;13.49;100.00;100209.74;187280;1233;59649;-70
2024/04/06 04:10:01;;;;;;;3.10;1.20;;;;;;;13.45;100.00;100215.33;187275;1234;43505;-70
2024/04/06 04:14:03;;;;;;;2.30;1.60;;;;;;;13.42;100.00;100216.45;187329;1233;43674;-70
2024/04/06 04:18:05;;;;;;;2.70;1.70;;;;;;;13.35;100.00;100218.56;187288;1234;43888;-70
2024/04/06 04:22:11;;;;;;;3.70;2.70;;;;;;;13.35;100.00;100217.83;187253;1234;43605;-70
2024/04/06 04:26:13;;;;;;;6.40;3.60;;;;;;;13.20;100.00;100226.37;187273;1234;58093;-70
2024/04/06 04:30:15;;;;;;;8.30;4.90;;;;;;;13.03;100.00;100225.28;187306;1234;43677;-70
2024/04/06 04:34:17;;;;;;;13.60;4.30;;;;;;;12.98;100.00;100233.67;187254;1235;43732;-70
2024/04/06 04:38:18;;;;;;;5.20;3.60;;;;;;;12.98;100.00;100233.56;187285;1232;43019;-70
2024/04/06 04:42:20;;;;;;;2.70;2.00;;;;;;;12.99;100.00;100230.77;187247;1233;43545;-70
2024/04/06 04:46:27;;;;;;;3.70;2.70;;;;;;;13.02;100.00;100236.98;187288;1232;59484;-70
2024/04/06 04:50:28;;;;;;;3.50;3.00;;;;;;;13.04;100.00;100239.61;187257;1233;43132;-70
2024/04/06 04:54:30;;;;;;;6.10;3.70;;;;;;;13.10;100.00;100248.12;187268;1235;42996;-70
2024/04/06 04:58:32;;;;;;;4.30;3.60;;;;;;;13.19;100.00;100258.98;187296;1234;43961;-70
2024/04/06 05:03:04;;;;;;;5.80;2.00;;;;;;;13.35;100.00;100265.52;187272;1235;43574;-70
2024/04/06 05:07:05;;;;;;;4.00;2.00;;;;;;;13.50;100.00;100263.29;187251;1233;59478;-70
2024/04/06 05:11:07;;;;;;;4.60;2.20;;;;;;;13.64;100.00;100259.48;186762;1235;90082;-87
2024/04/06 05:15:09;;;;;;;7.90;3.70;;;;;;;13.90;100.00;100262.07;186373;1235;43824;-90
2024/04/06 05:19:12;;;;;;;5.00;3.90;;;;;;;14.22;100.00;100258.73;186282;1235;43762;-88
2024/04/06 05:23:14;;;;;;;5.50;3.80;;;;;;;14.49;100.00;100259.17;186216;1235;43739;-87
2024/04/06 05:27:16;;;;;;;4.60;3.40;;;;;;;14.68;100.00;100265.71;186305;1233;58046;-86
2024/04/06 05:31:18;;;;;;;4.70;3.00;;;;;;;14.67;100.00;100272.39;186484;1234;43967;-86
2024/04/06 05:35:20;;;;;;;18.80;4.60;;;;;;;14.58;100.00;100277.77;186306;1235;43766;-87
2024/04/06 05:39:22;;;;;;;6.50;3.10;;;;;;;14.53;100.00;100281.29;186321;1234;43717;-88
2024/04/06 05:43:24;;;;;;;12.00;4.40;;;;;;;14.62;100.00;100277.15;186225;1235;44004;-88
2024/04/06 05:47:27;;;;;;;6.80;3.80;;;;;;;15.06;100.00;100272.12;186209;1237;57902;-88
2024/04/06 05:51:29;;;;;;;5.80;2.90;;;;;;;15.58;99.61;100269.92;186308;1234;43773;-88
2024/04/06 05:55:31;;;;;;;5.10;3.20;;;;;;;15.63;98.72;100271.86;186352;1235;43745;-88
2024/04/06 05:59:34;;;;;;;5.20;3.70;;;;;;;15.58;99.31;100271.16;186384;1234;43680;-89
2024/04/06 06:03:36;;;;;;;3.30;2.90;;;;;;;15.56;99.87;100271.69;186345;1235;43766;-89
2024/04/06 06:07:39;;;;;;;2.80;2.10;;;;;;;15.66;100.00;100272.11;186433;1233;58241;-86
2024/04/06 06:11:41;;;;;;;5.70;2.80;;;;;;;15.74;100.00;100272.96;186296;1234;43752;-89
2024/04/06 06:15:43;;;;;;;8.30;4.60;;;;;;;15.66;100.00;100281.98;186076;1233;270678;-88
2024/04/06 06:19:45;;;;;;;5.80;2.90;;;;;;;15.60;100.00;100279.05;186337;1235;43762;-89
2024/04/06 06:23:48;;;;;;;4.10;2.70;;;;;;;15.68;100.00;100287.16;186313;1234;43943;-89
2024/04/06 06:27:51;;;;;;;5.90;3.00;;;;;;;15.75;100.00;100280.46;186509;1233;57852;-89
2024/04/06 06:31:53;;;;;;;5.90;2.50;;;;;;;15.95;100.00;100288.90;186357;1233;44068;-86
2024/04/06 06:35:54;;;;;;;4.40;3.20;;;;;;;16.23;100.00;100288.44;186425;1234;43768;-88
2024/04/06 06:39:59;;;;;;;6.50;2.20;;;;;;;16.52;100.00;100290.06;186574;1235;44000;-89
2024/04/06 06:44:04;;;;;;;3.00;1.70;;;;;;;16.74;100.00;100295.42;186311;1233;43998;-88
2024/04/06 06:48:06;;;;;;;2.10;1.20;;;;;;;16.92;100.00;100299.55;186485;1237;60417;-87
2024/04/06 06:52:08;;;;;;;2.10;1.30;;;;;;;17.08;100.00;100300.73;186707;1234;43708;-85
2024/04/06 06:56:10;;;;;;;4.10;1.30;;;;;;;17.17;100.00;100300.61;187079;1233;43904;-88
2024/04/06 07:00:14;;;;;;;1.30;1.20;;;;;;;17.29;100.00;100304.03;186963;1234;43336;-87
2024/04/06 07:04:19;;;;;;;3.30;1.80;;;;;;;17.37;98.87;100307.82;186564;1234;43923;-90
2024/04/06 07:08:21;;;;;;;3.40;1.10;;;;;;;17.46;98.87;100304.59;186453;1234;58152;-89
2024/04/06 07:12:23;;;;;;;2.60;2.00;;;;;;;17.72;99.74;100306.80;186600;1234;43608;-90
2024/04/06 07:16:26;;;;;;;5.80;1.80;;;;;;;17.97;98.79;100306.67;186324;1234;43692;-89
2024/04/06 07:20:30;;;;;;;2.00;1.30;;;;;;;18.25;97.82;100304.69;186403;1233;43996;-89
2024/04/06 07:24:32;;;;;;;3.90;1.80;;;;;;;18.52;94.41;100297.61;186263;1235;43742;-90
2024/04/06 07:28:36;;;;;;;4.00;1.30;;;;;;;18.69;93.30;100294.44;186339;1234;59397;-87
2024/04/06 07:32:39;;;;;;;1.80;0.90;;;;;;;18.75;93.29;100293.78;186482;1234;43984;-90
2024/04/06 07:36:41;;;;;;;1.90;1.50;;;;;;;18.89;93.17;100301.84;186561;1234;43731;-91
2024/04/06 07:40:44;;;;;;;3.70;1.40;;;;;;;19.11;92.46;100311.52;186375;1235;43698;-90
2024/04/06 07:44:46;;;;;;;3.30;1.50;;;;;;;19.47;94.93;100309.65;186249;1234;44028;-89
2024/04/06 07:48:49;;;;;;;2.50;1.80;;;;;;;19.79;90.11;100309.05;186406;1232;59347;-87
2024/04/06 07:52:51;;;;;;;14.50;2.70;;;;;;;20.15;85.62;100312.33;186384;1234;43998;-89
2024/04/06 07:56:58;;;;;;;0.70;0.70;;;;;;;20.37;82.43;100309.60;186373;1232;43653;-89
2024/04/06 08:01:04;;;;;;;1.20;0.80;;;;;;;20.53;80.37;100310.66;186431;1233;43632;-88
2024/04/06 08:05:07;;;;;;;3.60;1.10;;;;;;;20.84;79.83;100313.20;186425;1235;44039;-87
2024/04/06 08:09:10;;;;;;;5.10;1.60;;;;;;;21.03;79.75;100309.89;186305;1233;60284;-84
2024/04/06 08:13:13;;;;;;;1.20;1.10;;;;;;;21.30;77.36;100310.06;186457;1233;43741;-90
2024/04/06 08:21:52;;;;;;;1.30;0.80;;;;;;;21.51;75.48;100313.80;187236;1231;43185;-73
2024/04/06 08:25:54;;;;;;;3.40;1.20;;;;;;;21.46;76.72;100310.02;187235;1231;42947;-73
2024/04/06 08:29:56;;;;;;;0.80;0.60;;;;;;;21.38;77.78;100312.75;187203;1231;57958;-73
2024/04/06 08:33:57;;;;;;;1.10;0.70;;;;;;;21.54;78.18;100317.61;187321;1231;43065;-74
2024/04/06 08:38:28;;;;;;;1.30;0.80;;;;;;;21.45;77.09;100314.09;187227;1231;43117;-74
2024/04/06 08:42:30;;;;;;;2.70;1.40;;;;;;;21.39;75.84;100317.71;187320;1231;43519;-72
2024/04/06 08:46:32;;;;;;;1.90;1.10;;;;;;;21.38;76.48;100318.67;187461;1231;43321;-73
2024/04/06 08:50:34;;;;;;;2.40;1.10;;;;;;;21.40;77.26;100317.35;187376;1231;57893;-73
2024/04/06 08:59:22;;;;;;;1.70;0.80;;;;;;;21.52;79.20;100328.22;187231;1231;88723;-72
2024/04/06 09:08:16;;;;;;;1.50;0.80;;;;;;;21.54;78.74;100315.82;187071;1233;43007;-73
2024/04/06 09:17:19;;;;;;;15.00;2.90;;;;;;;21.41;77.95;100309.27;187085;1233;43055;-73
2024/04/06 09:21:21;;;;;;;4.30;1.30;;;;;;;21.44;79.00;100310.09;186837;1236;43021;-73
2024/04/06 09:25:22;;;;;;;4.80;0.80;;;;;;;21.40;77.82;100305.56;186930;1234;43040;-77
2024/04/06 09:29:24;;;;;;;2.20;1.00;;;;;;;21.43;76.96;100304.63;187199;1233;42955;-77
2024/04/06 09:33:27;;;;;;;1.70;1.20;;;;;;;21.61;75.73;100310.25;187132;1234;58152;-76
2024/04/06 09:37:34;;;;;;;3.30;1.00;;;;;;;21.47;74.54;100310.86;187055;1234;43073;-76
2024/04/06 09:46:33;;;;;;;1.60;0.80;;;;;;;21.46;77.62;100300.77;187099;1234;43022;-75
2024/04/06 09:50:38;;;;;;;1.70;1.20;;;;;;;21.52;77.40;100301.44;187135;1233;42938;-75
2024/04/06 09:54:39;;;;;;;2.30;1.20;;;;;;;21.51;75.99;100296.66;187122;1233;58062;-75
2024/04/06 09:58:48;;;;;;;3.30;1.30;;;;;;;21.64;76.33;100287.88;187145;1234;43239;-75
2024/04/06 10:02:51;;;;;;;3.50;0.60;;;;;;;21.73;76.91;100295.02;187128;1233;44095;-76
2024/04/06 10:12:11;;;;;;;0.90;0.80;;;;;;;21.84;76.69;100301.38;187178;1234;42999;-76
2024/04/06 10:16:37;;;;;;;1.00;0.70;;;;;;;21.90;74.90;100294.95;187086;1234;58272;-74
2024/04/06 10:20:43;;;;;;;2.60;0.90;;;;;;;21.87;73.94;100290.02;187111;1234;43021;-76
2024/04/06 10:24:54;;;;;;;2.70;1.90;;;;;;;21.93;74.36;100296.19;187173;1234;42971;-75
2024/04/06 10:28:56;;;;;;;1.80;0.70;;;;;;;21.96;73.61;100291.64;187148;1234;43638;-73
2024/04/06 10:33:00;;;;;;;2.00;0.70;;;;;;;22.09;74.67;100287.95;187164;1233;42987;-73
2024/04/06 10:37:02;;;;;;;1.10;0.60;;;;;;;22.41;75.49;100283.10;187069;1233;57485;-74
2024/04/06 10:46:34;;;;;;;2.60;0.90;;;;;;;22.51;74.93;100273.80;187171;1233;44317;-75
2024/04/06 11:17:49;;;;;;;1.70;1.00;;;;;;;22.51;72.08;100296.11;187291;1232;43061;-63
2024/04/06 11:21:53;;;;;;;3.90;1.80;;;;;;;22.34;72.13;100294.70;187007;1234;43647;-65
2024/04/06 11:26:01;;;;;;;1.70;0.90;;;;;;;22.42;75.10;100285.70;187160;1232;58303;-64
2024/04/06 11:30:19;;;;;;;21.60;6.50;;;;;;;22.58;72.68;100280.71;187141;1233;43787;-64
2024/04/06 11:34:21;;;;;;;3.50;1.10;;;;;;;22.70;73.55;100279.86;187201;1234;43042;-64
2024/04/06 11:38:23;;;;;;;3.10;1.60;;;;;;;22.65;71.33;100283.98;187348;1232;43941;-66
2024/04/06 11:42:24;;;;;;;1.00;0.60;;;;;;;22.82;75.29;100280.04;187084;1233;43984;-65
2024/04/06 11:46:39;;;;;;;2.50;1.00;;;;;;;23.05;70.29;100279.84;187227;1233;57585;-65
2024/04/06 11:50:41;;;;;;;1.60;0.90;;;;;;;23.03;69.47;100285.77;187305;1233;42978;-65
2024/04/06 11:54:44;;;;;;;1.20;0.50;;;;;;;22.95;71.43;100285.73;187250;1233;43530;-66
2024/04/06 11:58:50;;;;;;;3.00;1.00;;;;;;;23.01;68.79;100280.55;187251;1235;43691;-66
2024/04/06 12:02:51;;;;;;;1.40;1.20;;;;;;;23.01;69.27;100285.89;187281;1232;42959;-64
2024/04/06 12:06:53;;;;;;;2.60;1.20;;;;;;;22.80;70.91;100288.46;187330;1234;57899;-65
2024/04/06 12:11:46;;;;;;;3.00;0.60;;;;;;;22.79;72.48;100293.04;187272;1232;43570;-64
2024/04/06 12:15:47;;;;;;;23.00;2.20;;;;;;;22.65;73.59;100294.02;187225;1232;43329;-64
2024/04/06 12:19:49;;;;;;;14.10;4.10;;;;;;;22.45;75.22;100295.26;187286;1234;43683;-64
2024/04/06 12:23:51;;;;;;;4.00;2.40;;;;;;;22.47;75.08;100288.55;187213;1232;42978;-65
2024/04/06 12:28:19;;;;;;;3.30;1.10;;;;;;;22.55;73.07;100288.88;187187;1234;58031;-64
2024/04/06 12:32:20;;;;;;;3.40;0.60;;;;;;;22.74;72.42;100289.11;187132;1234;43641;-64
2024/04/06 12:36:22;;;;;;;19.80;4.80;;;;;;;22.83;72.19;100288.05;187247;1234;42993;-63
2024/04/06 12:40:25;;;;;;;1.30;0.80;;;;;;;22.94;72.56;100279.33;187231;1233;43607;-65
2024/04/06 12:44:42;;;;;;;1.50;0.90;;;;;;;23.07;72.44;100280.39;187160;1234;42960;-65
2024/04/06 12:48:43;;;;;;;1.80;0.80;;;;;;;23.25;69.33;100277.05;187241;1233;58002;-64
2024/04/06 12:52:45;;;;;;;1.80;1.10;;;;;;;23.45;69.94;100269.89;187252;1233;43534;-63
2024/04/06 13:01:58;;;;;;;1.50;0.80;;;;;;;23.71;66.84;100265.83;187160;1233;43575;-66
2024/04/06 13:06:03;;;;;;;4.00;1.20;;;;;;;23.79;68.07;100262.21;187268;1234;43382;-66
2024/04/06 13:10:08;;;;;;;17.70;4.90;;;;;;;23.59;64.84;100263.64;187264;1233;58410;-66
2024/04/06 13:14:10;;;;;;;2.00;0.40;;;;;;;23.54;66.88;100259.90;187257;1233;43731;-66
2024/04/06 13:18:12;;;;;;;3.20;1.00;;;;;;;23.54;68.13;100262.06;187240;1234;43344;-65
2024/04/06 13:22:14;;;;;;;3.00;0.80;;;;;;;23.61;68.26;100264.47;187217;1236;43223;-67
2024/04/06 13:26:15;;;;;;;1.60;0.40;;;;;;;23.77;67.59;100259.96;187140;1232;43715;-67
2024/04/06 13:30:20;;;;;;;1.60;0.50;;;;;;;23.88;68.16;100255.90;187249;1232;57100;-66
2024/04/06 13:34:21;;;;;;;0.70;0.40;;;;;;;24.04;65.95;100254.23;187249;1232;43015;-66
2024/04/06 13:38:43;;;;;;;0.90;0.60;;;;;;;24.20;65.42;100244.42;187215;1236;43756;-65
2024/04/06 13:42:45;;;;;;;1.00;0.40;;;;;;;24.36;64.36;100244.70;187158;1235;43044;-66
2024/04/06 13:46:54;;;;;;;0.30;0.30;;;;;;;24.45;63.39;100247.92;187256;1234;43736;-66
2024/04/06 13:50:56;;;;;;;1.30;0.20;;;;;;;24.31;64.52;100249.27;187237;1235;58161;-67
2024/04/06 13:55:05;;;;;;;1.00;0.60;;;;;;;24.19;64.75;100247.18;187192;1235;43614;-68
2024/04/06 13:59:07;;;;;;;1.50;1.00;;;;;;;24.08;64.94;100246.33;187246;1235;43061;-66
2024/04/06 14:03:09;;;;;;;2.20;0.60;;;;;;;23.83;65.34;100245.90;187196;1234;43109;-66
2024/04/06 14:07:11;;;;;;;1.20;0.30;;;;;;;23.76;65.72;100250.73;187212;1235;43558;-68
2024/04/06 14:11:18;;;;;;;5.20;1.30;;;;;;;23.83;67.08;100253.55;187233;1236;58231;-67
2024/04/06 14:15:25;;;;;;;0.70;0.40;;;;;;;23.95;65.16;100247.77;187167;1234;43571;-66
2024/04/06 14:19:27;;;;;;;0.70;0.40;;;;;;;24.05;66.52;100245.84;187235;1233;43539;-66
2024/04/06 14:23:30;;;;;;;1.10;0.70;;;;;;;24.21;64.56;100243.63;187236;1235;43792;-66
2024/04/06 14:27:32;;;;;;;1.40;0.60;;;;;;;24.38;66.43;100241.58;187295;1234;43430;-65
2024/04/06 14:31:33;;;;;;;2.00;0.40;;;;;;;24.52;65.45;100242.27;187213;1232;58144;-66
2024/04/06 14:36:33;;;;;;;0.30;0.30;;;;;;;24.29;64.94;100246.75;187256;1235;43707;-66
2024/04/06 14:40:35;;;;;;;0.60;0.50;;;;;;;23.95;66.36;100250.29;187277;1236;43725;-65
2024/04/06 14:44:37;;;;;;;11.60;1.50;;;;;;;23.62;69.80;100248.98;187255;1233;43624;-67
2024/04/06 14:49:33;;;;;;;1.80;0.70;;;;;;;23.39;70.03;100245.06;187257;1235;42915;-65
2024/04/06 14:53:34;;;;;;;2.80;1.00;;;;;;;23.14;71.42;100256.43;187218;1233;58020;-66
2024/04/06 14:57:47;;;;;;;1.60;0.60;;;;;;;23.15;72.82;100259.71;187212;1234;43586;-65
2024/04/06 15:01:49;;;;;;;8.50;2.10;;;;;;;23.27;73.57;100260.06;187211;1235;43017;-65
2024/04/06 15:05:58;;;;;;;2.50;0.70;;;;;;;23.44;75.20;100258.91;187255;1235;43059;-65
2024/04/06 15:10:00;;;;;;;1.10;0.80;;;;;;;23.58;75.57;100253.41;186647;1231;89750;-88
2024/04/06 15:14:02;;;;;;;1.40;0.70;;;;;;;23.67;73.35;100243.46;186640;1231;58003;-88
2024/04/06 15:18:05;;;;;;;2.00;0.60;;;;;;;23.77;73.45;100249.26;186849;1231;43726;-89
2024/04/06 15:22:08;;;;;;;2.10;0.80;;;;;;;23.87;74.56;100247.77;186945;1231;43820;-90
2024/04/06 15:26:10;;;;;;;57.80;22.60;;;;;;;23.94;72.44;100251.83;186773;1231;43689;-88
2024/04/06 15:30:12;;;;;;;12.90;2.90;;;;;;;23.99;72.33;100244.04;186980;1231;43022;-89
2024/04/06 15:34:14;;;;;;;12.90;4.10;;;;;;;24.11;73.74;100234.44;186608;1231;58572;-88
2024/04/06 15:38:17;;;;;;;6.40;1.80;;;;;;;24.09;69.97;100233.61;186655;1231;43796;-89
2024/04/06 15:42:22;;;;;;;2.40;0.80;;;;;;;24.19;72.91;100226.54;186671;1231;43739;-87
2024/04/06 15:46:24;;;;;;;1.00;0.60;;;;;;;24.31;72.67;100221.79;186615;1231;43626;-89
2024/04/06 15:50:26;;;;;;;1.70;0.90;;;;;;;24.31;71.15;100218.86;186895;1231;43717;-88
2024/04/06 15:54:30;;;;;;;1.50;0.50;;;;;;;24.23;67.93;100210.91;186700;1231;58083;-89
2024/04/06 15:58:32;;;;;;;9.70;1.60;;;;;;;24.22;71.73;100212.15;186556;1231;43607;-88
2024/04/06 16:02:34;;;;;;;2.20;1.00;;;;;;;24.16;72.13;100203.94;186552;1236;44011;-87
2024/04/06 16:06:37;;;;;;;7.50;1.80;;;;;;;24.14;74.65;100199.64;186545;1234;43663;-89
2024/04/06 16:10:39;;;;;;;2.30;1.30;;;;;;;24.14;76.25;100204.15;186500;1231;43723;-88
2024/04/06 16:14:42;;;;;;;3.80;1.70;;;;;;;24.18;76.97;100204.94;186571;1236;58020;-87
2024/04/06 16:18:44;;;;;;;2.40;0.80;;;;;;;24.21;75.33;100202.24;186416;1231;43770;-88
2024/04/06 16:22:49;;;;;;;1.90;1.00;;;;;;;24.19;72.39;100203.14;186667;1231;44112;-90
2024/04/06 16:26:52;;;;;;;;;;;;;;;24.17;72.75;100208.81;186637;1231;44571;-90
2024/04/06 16:30:54;;;;;;;21.70;8.00;;;;;;;24.17;73.62;100214.64;186826;1232;43386;-87
2024/04/06 16:34:57;;;;;;;6.50;3.50;;;;;;;24.08;75.19;100215.02;186702;1231;57927;-89
2024/04/06 16:38:59;;;;;;;46.70;10.00;;;;;;;23.92;76.15;100220.50;186448;1231;43562;-87
2024/04/06 16:43:02;;;;;;;6.40;2.70;;;;;;;23.80;76.10;100219.93;186481;1231;43742;-86
2024/04/06 16:47:04;;;;;;;12.90;3.30;;;;;;;23.71;75.83;100219.55;186561;1231;44147;-89
2024/04/06 16:51:08;;;;;;;20.50;3.80;;;;;;;23.59;76.39;100214.45;186594;1231;43854;-87
2024/04/06 16:55:11;;;;;;;7.30;2.20;;;;;;;23.44;76.21;100212.78;186556;1231;57836;-86
2024/04/06 16:59:13;;;;;;;2.80;1.10;;;;;;;23.29;77.44;100212.10;186654;1231;44001;-88
2024/04/06 17:03:16;;;;;;;6.00;2.60;;;;;;;23.11;78.23;100201.20;186455;1231;43732;-87
2024/04/06 17:07:19;;;;;;;120.20;93.50;;;;;;;22.93;78.53;100195.06;186663;1232;43592;-87
2024/04/06 17:11:24;;;;;;;;;;;;;;;22.74;80.08;100196.61;186936;1231;43697;-86
2024/04/06 17:15:27;;;;;;;6.10;4.70;;;;;;;22.31;83.58;100204.08;186701;1231;58949;-87
2024/04/06 17:19:30;;;;;;;4.60;2.90;;;;;;;21.79;85.96;100216.12;186614;1232;43633;-87
2024/04/06 17:23:33;;;;;;;21.30;12.10;;;;;;;21.41;89.48;100224.23;186817;1232;43575;-87
2024/04/06 17:27:35;;;;;;;11.20;7.20;;;;;;;21.16;88.94;100223.99;186539;1232;45728;-85
2024/04/06 17:31:37;;;;;;;7.30;3.10;;;;;;;21.04;88.67;100224.20;186927;1232;43754;-88
2024/04/06 17:35:39;;;;;;;4.50;2.80;;;;;;;20.90;89.70;100221.09;186602;1232;60648;-87
2024/04/06 17:39:41;;;;;;;6.10;2.60;;;;;;;20.63;91.12;100224.27;186441;1231;44077;-87
2024/04/06 17:43:44;;;;;;;3.20;2.10;;;;;;;20.46;89.86;100226.33;186697;1232;44156;-85
2024/04/06 17:47:46;;;;;;;11.40;7.00;;;;;;;20.35;90.29;100220.35;186543;1232;43750;-88
2024/04/06 17:51:48;;;;;;;21.30;12.40;;;;;;;20.11;93.30;100223.83;186471;1232;43707;-87
2024/04/06 17:55:50;;;;;;;16.00;7.70;;;;;;;19.82;97.01;100233.68;186430;1236;56984;-86
2024/04/06 17:59:53;;;;;;;30.90;19.80;;;;;;;19.58;98.27;100241.17;186482;1232;43977;-87
2024/04/06 18:03:57;;;;;;;22.00;16.00;;;;;;;19.38;99.67;100250.13;186486;1232;43990;-90
2024/04/06 18:08:01;;;;;;;26.40;16.90;;;;;;;19.17;99.89;100254.02;186448;1232;44019;-89
2024/04/06 18:12:04;;;;;;;51.50;13.00;;;;;;;19.01;100.00;100256.08;186615;1232;252181;-89
2024/04/06 18:16:06;;;;;;;18.50;9.70;;;;;;;18.92;99.97;100255.46;186379;1232;59151;-87
2024/04/06 18:20:08;;;;;;;15.60;7.80;;;;;;;18.89;100.00;100253.26;186411;1232;43815;-88
2024/04/06 18:24:10;;;;;;;21.10;15.10;;;;;;;18.72;100.00;100258.55;186364;1232;43984;-88
2024/04/06 18:28:13;;;;;;;24.60;17.00;;;;;;;18.54;100.00;100261.70;186325;1232;43993;-88
2024/04/06 18:32:15;;;;;;;20.80;13.10;;;;;;;18.37;100.00;100273.42;186726;1232;43970;-84
2024/04/06 18:36:17;;;;;;;18.90;14.90;;;;;;;18.32;100.00;100284.05;186398;1232;59679;-83
2024/04/06 18:40:19;;;;;;;33.30;24.10;;;;;;;18.18;100.00;100285.17;186371;1232;43701;-88
2024/04/06 18:44:22;;;;;;;19.90;14.20;;;;;;;18.13;100.00;100290.59;186555;1232;43699;-84
2024/04/06 18:48:24;;;;;;;16.50;12.80;;;;;;;18.00;100.00;100296.34;186374;1232;43959;-87
2024/04/06 18:52:26;;;;;;;27.70;17.20;;;;;;;17.86;100.00;100291.83;186381;1231;44082;-89
2024/04/06 18:56:28;;;;;;;38.10;25.00;;;;;;;17.69;100.00;100290.04;186223;1232;59333;-87
2024/04/06 19:00:30;;;;;;;72.50;49.50;;;;;;;17.64;100.00;100293.30;186408;1232;43671;-89
2024/04/06 19:04:33;;;;;;;64.50;39.60;;;;;;;17.54;100.00;100297.30;186376;1232;43803;-88
2024/04/06 19:08:35;;;;;;;47.30;34.80;;;;;;;17.51;100.00;100304.98;186800;1231;43751;-89
2024/04/06 19:12:41;;;;;;;20.80;15.00;;;;;;;17.39;100.00;100305.56;186533;1232;43731;-89
2024/04/06 19:16:43;;;;;;;19.30;14.00;;;;;;;17.35;100.00;100301.94;186480;1232;57936;-90
2024/04/06 19:20:46;;;;;;;19.30;15.80;;;;;;;17.32;100.00;100298.16;186464;1232;44147;-89
2024/04/06 19:24:48;;;;;;;31.10;14.70;;;;;;;17.24;100.00;100299.90;186215;1236;43640;-88
2024/04/06 19:28:50;;;;;;;30.40;19.50;;;;;;;17.08;99.37;100295.71;186766;1232;43992;-88
2024/04/06 19:32:53;;;;;;;27.20;15.90;;;;;;;16.89;99.50;100286.78;186508;1232;44016;-89
2024/04/06 19:36:55;;;;;;;28.50;20.10;;;;;;;16.68;100.00;100287.97;186628;1231;57838;-88
2024/04/06 19:40:57;;;;;;;26.00;16.60;;;;;;;16.53;100.00;100294.89;186575;1232;43631;-89